Time,TemperatureF,DewpointF,PressureIn,WindDirection,WindDirectionDegrees,WindSpeedMPH,WindSpeedGustMPH,Humidity,HourlyPrecipIn,Conditions,Clouds,dailyrainin,SoftwareType,DateUTC
2013-02-20 00:02:00,12.7,-8.1,31.41,SW,225,0.0,0.0,38,0.00,,,0.00,meteohub,2013-02-20 07:02:00,
2013-02-20 00:07:00,12.7,-8.1,31.42,SW,225,0.0,0.0,38,0.00,,,0.00,meteohub,2013-02-20 07:07:00,
2013-02-20 00:12:00,12.6,-8.3,31.41,SW,225,0.0,0.0,38,0.00,,,0.00,meteohub,2013-02-20 07:12:00,
2013-02-20 00:17:00,12.2,-8.5,31.41,NW,315,0.0,0.0,38,0.00,,,0.00,meteohub,2013-02-20 07:17:00,
2013-02-20 00:23:00,12.2,-8.5,31.41,SW,225,0.0,0.0,38,0.00,,,0.00,meteohub,2013-02-20 07:23:00,
2013-02-20 00:28:00,12.0,-8.1,31.40,SW,225,0.0,0.0,39,0.00,,,0.00,meteohub,2013-02-20 07:28:00,
2013-02-20 00:33:00,11.7,-8.5,31.41,West,270,0.0,0.0,39,0.00,,,0.00,meteohub,2013-02-20 07:33:00,
2013-02-20 00:39:00,11.7,-8.0,31.40,West,270,0.0,0.0,40,0.00,,,0.00,meteohub,2013-02-20 07:39:00,
2013-02-20 00:44:00,11.7,-8.0,31.40,SW,225,0.0,0.0,40,0.00,,,0.00,meteohub,2013-02-20 07:44:00,
2013-02-20 00:50:00,11.5,-8.1,31.40,SW,225,0.0,0.0,40,0.00,,,0.00,meteohub,2013-02-20 07:50:00,
2013-02-20 00:55:00,11.1,-8.5,31.40,South,180,0.0,0.0,40,0.00,,,0.00,meteohub,2013-02-20 07:55:00,
2013-02-20 01:01:00,10.9,-8.1,31.40,West,270,0.0,0.0,41,0.00,,,0.00,meteohub,2013-02-20 08:01:00,
2013-02-20 01:06:00,10.9,-8.1,31.40,West,270,0.0,0.0,41,0.00,,,0.00,meteohub,2013-02-20 08:06:00,
2013-02-20 01:12:00,11.1,-8.0,31.39,NE,45,0.0,0.0,41,0.00,,,0.00,meteohub,2013-02-20 08:12:00,
2013-02-20 01:17:00,11.1,-8.0,31.40,South,180,0.0,0.0,41,0.00,,,0.00,meteohub,2013-02-20 08:17:00,
2013-02-20 01:22:00,10.4,-8.7,31.39,South,180,0.0,0.0,41,0.00,,,0.00,meteohub,2013-02-20 08:22:00,
2013-02-20 01:27:00,10.0,-11.0,31.39,West,270,0.0,0.0,37,0.00,,,0.00,meteohub,2013-02-20 08:27:00,
2013-02-20 01:32:00,10.2,-9.8,31.39,SW,225,0.0,0.0,39,0.00,,,0.00,meteohub,2013-02-20 08:32:00,
2013-02-20 01:37:00,10.2,-9.8,31.39,West,270,0.0,0.0,39,0.00,,,0.00,meteohub,2013-02-20 08:37:00,
2013-02-20 01:43:00,10.2,-9.8,31.39,NW,315,0.0,0.0,39,0.00,,,0.00,meteohub,2013-02-20 08:43:00,
2013-02-20 01:48:00,10.2,-9.8,31.38,SW,225,0.0,0.0,39,0.00,,,0.00,meteohub,2013-02-20 08:48:00,
2013-02-20 01:54:00,10.0,-9.9,31.39,South,180,0.0,0.0,39,0.00,,,0.00,meteohub,2013-02-20 08:54:00,
2013-02-20 01:59:00,9.7,-10.3,31.39,SW,225,0.0,0.0,39,0.00,,,0.00,meteohub,2013-02-20 08:59:00,
2013-02-20 02:05:00,9.3,-9.6,31.39,West,270,0.0,0.0,41,0.00,,,0.00,meteohub,2013-02-20 09:05:00,
2013-02-20 02:11:00,9.1,-9.8,31.38,SW,225,0.0,0.0,41,0.00,,,0.00,meteohub,2013-02-20 09:11:00,
2013-02-20 02:16:00,9.0,-9.9,31.38,South,180,0.0,0.0,41,0.00,,,0.00,meteohub,2013-02-20 09:16:00,
2013-02-20 02:22:00,9.0,-9.9,31.37,NE,45,0.0,0.0,41,0.00,,,0.00,meteohub,2013-02-20 09:22:00,
2013-02-20 02:27:00,8.8,-10.1,31.38,SW,225,0.0,0.0,41,0.00,,,0.00,meteohub,2013-02-20 09:27:00,
2013-02-20 02:32:00,8.6,-10.3,31.38,SW,225,0.0,0.0,41,0.00,,,0.00,meteohub,2013-02-20 09:32:00,
2013-02-20 02:37:00,8.4,-9.9,31.38,South,180,0.0,0.0,42,0.00,,,0.00,meteohub,2013-02-20 09:37:00,
2013-02-20 02:42:00,8.1,-10.3,31.38,South,180,0.0,0.0,42,0.00,,,0.00,meteohub,2013-02-20 09:42:00,
2013-02-20 02:48:00,8.1,-10.3,31.37,South,180,0.0,0.0,42,0.00,,,0.00,meteohub,2013-02-20 09:48:00,
2013-02-20 02:53:00,8.1,-9.8,31.37,SW,225,0.0,0.0,43,0.00,,,0.00,meteohub,2013-02-20 09:53:00,
2013-02-20 02:58:00,8.1,-9.8,31.38,SW,225,0.0,0.0,43,0.00,,,0.00,meteohub,2013-02-20 09:58:00,
2013-02-20 03:04:00,8.1,-9.8,31.38,South,180,0.0,0.0,43,0.00,,,0.00,meteohub,2013-02-20 10:04:00,
2013-02-20 03:09:00,8.2,-9.6,31.38,SW,225,0.0,0.0,43,0.00,,,0.00,meteohub,2013-02-20 10:09:00,
2013-02-20 03:15:00,8.2,-9.6,31.38,West,270,0.0,0.0,43,0.00,,,0.00,meteohub,2013-02-20 10:15:00,
2013-02-20 03:20:00,7.9,-9.9,31.38,SW,225,0.0,0.0,43,0.00,,,0.00,meteohub,2013-02-20 10:20:00,
2013-02-20 03:26:00,7.3,-10.5,31.37,SW,225,0.0,0.0,43,0.00,,,0.00,meteohub,2013-02-20 10:26:00,
2013-02-20 03:31:00,7.0,-10.8,31.37,SW,225,0.0,0.0,43,0.00,,,0.00,meteohub,2013-02-20 10:31:00,
2013-02-20 03:37:00,6.6,-10.7,31.37,SW,225,0.0,0.0,44,0.00,,,0.00,meteohub,2013-02-20 10:37:00,
2013-02-20 03:42:00,6.4,-10.8,31.37,SW,225,0.0,0.0,44,0.00,,,0.00,meteohub,2013-02-20 10:42:00,
2013-02-20 03:47:00,6.3,-10.5,31.36,SW,225,0.0,0.0,45,0.00,,,0.00,meteohub,2013-02-20 10:47:00,
2013-02-20 03:52:00,6.4,-10.3,31.37,SW,225,0.0,0.0,45,0.00,,,0.00,meteohub,2013-02-20 10:52:00,
2013-02-20 03:57:00,6.4,-10.3,31.37,NE,45,0.0,0.0,45,0.00,,,0.00,meteohub,2013-02-20 10:57:00,
2013-02-20 04:02:00,6.4,-10.3,31.37,NE,45,0.0,0.0,45,0.00,,,0.00,meteohub,2013-02-20 11:02:00,
2013-02-20 04:07:00,6.1,-10.7,31.37,West,270,0.0,0.0,45,0.00,,,0.00,meteohub,2013-02-20 11:07:00,
2013-02-20 04:12:00,5.4,-11.7,31.37,SW,225,0.0,0.0,44,0.00,,,0.00,meteohub,2013-02-20 11:12:00,
2013-02-20 04:17:00,5.0,-11.7,31.38,SW,225,0.0,0.0,45,0.00,,,0.00,meteohub,2013-02-20 11:17:00,
2013-02-20 04:22:00,4.8,-11.4,31.37,SW,225,0.0,0.0,46,0.00,,,0.00,meteohub,2013-02-20 11:22:00,
2013-02-20 04:27:00,5.0,-11.2,31.38,South,180,0.0,0.0,46,0.00,,,0.00,meteohub,2013-02-20 11:27:00,
2013-02-20 04:32:00,5.2,-10.7,31.37,West,270,0.0,0.0,47,0.00,,,0.00,meteohub,2013-02-20 11:32:00,
2013-02-20 04:37:00,5.5,-9.9,31.38,SW,225,0.0,0.0,48,0.00,,,0.00,meteohub,2013-02-20 11:37:00,
2013-02-20 04:42:00,5.9,-9.6,31.38,SW,225,0.0,0.0,48,0.00,,,0.00,meteohub,2013-02-20 11:42:00,
2013-02-20 04:48:00,6.1,-9.4,31.37,SW,225,0.0,0.0,48,0.00,,,0.00,meteohub,2013-02-20 11:48:00,
2013-02-20 04:53:00,6.4,-9.0,31.38,SW,225,0.0,0.0,48,0.00,,,0.00,meteohub,2013-02-20 11:53:00,
2013-02-20 04:59:00,6.4,-9.0,31.38,West,270,0.0,0.0,48,0.00,,,0.00,meteohub,2013-02-20 11:59:00,
2013-02-20 05:04:00,6.4,-9.0,31.37,West,270,0.0,0.0,48,0.00,,,0.00,meteohub,2013-02-20 12:04:00,
2013-02-20 05:10:00,6.6,-9.4,31.38,South,180,0.0,0.0,47,0.00,,,0.00,meteohub,2013-02-20 12:10:00,
2013-02-20 05:15:00,6.3,-9.6,31.37,West,270,0.0,0.0,47,0.00,,,0.00,meteohub,2013-02-20 12:15:00,
2013-02-20 05:21:00,6.1,-9.8,31.37,SW,225,0.0,0.0,47,0.00,,,0.00,meteohub,2013-02-20 12:21:00,
2013-02-20 05:26:00,5.9,-9.9,31.38,West,270,0.0,0.0,47,0.00,,,0.00,meteohub,2013-02-20 12:26:00,
2013-02-20 05:32:00,5.7,-10.1,31.38,NW,315,0.0,0.0,47,0.00,,,0.00,meteohub,2013-02-20 12:32:00,
2013-02-20 05:37:00,5.4,-10.5,31.38,West,270,0.0,0.0,47,0.00,,,0.00,meteohub,2013-02-20 12:37:00,
2013-02-20 05:42:00,4.8,-10.7,31.38,SSW,203,0.0,0.0,48,0.00,,,0.00,meteohub,2013-02-20 12:42:00,
2013-02-20 05:47:00,4.3,-11.0,31.37,South,180,0.0,0.0,48,0.00,,,0.00,meteohub,2013-02-20 12:47:00,
2013-02-20 05:52:00,4.1,-11.2,31.38,South,180,0.0,0.0,48,0.00,,,0.00,meteohub,2013-02-20 12:52:00,
2013-02-20 05:57:00,4.1,-10.8,31.38,NW,315,0.0,0.0,49,0.00,,,0.00,meteohub,2013-02-20 12:57:00,
2013-02-20 06:02:00,4.6,-10.3,31.37,NW,315,0.0,0.0,49,0.00,,,0.00,meteohub,2013-02-20 13:02:00,
2013-02-20 06:07:00,4.6,-10.3,31.37,NW,315,0.0,0.0,49,0.00,,,0.00,meteohub,2013-02-20 13:07:00,
2013-02-20 06:12:00,4.3,-10.7,31.38,SW,225,0.0,0.0,49,0.00,,,0.00,meteohub,2013-02-20 13:12:00,
2013-02-20 06:17:00,3.7,-11.2,31.37,SW,225,0.0,0.0,49,0.00,,,0.00,meteohub,2013-02-20 13:17:00,
2013-02-20 06:22:00,3.4,-11.6,31.37,West,270,0.0,0.0,49,0.00,,,0.00,meteohub,2013-02-20 13:22:00,
2013-02-20 06:27:00,3.4,-10.7,31.37,SW,225,0.0,0.0,51,0.00,,,0.00,meteohub,2013-02-20 13:27:00,
2013-02-20 06:32:00,3.4,-10.7,31.37,SW,225,0.0,0.0,51,0.00,,,0.00,meteohub,2013-02-20 13:32:00,
2013-02-20 06:37:00,3.2,-10.8,31.37,SW,225,0.0,0.0,51,0.00,,,0.00,meteohub,2013-02-20 13:37:00,
2013-02-20 06:42:00,3.4,-10.3,31.37,West,270,0.0,0.0,52,0.00,,,0.00,meteohub,2013-02-20 13:42:00,
2013-02-20 06:47:00,3.6,-9.8,31.37,SW,225,0.0,0.0,53,0.00,,,0.00,meteohub,2013-02-20 13:47:00,
2013-02-20 06:52:00,3.7,-9.6,31.37,SW,225,0.0,0.0,53,0.00,,,0.00,meteohub,2013-02-20 13:52:00,
2013-02-20 06:57:00,3.7,-9.6,31.37,NW,315,0.0,0.0,53,0.00,,,0.00,meteohub,2013-02-20 13:57:00,
2013-02-20 07:02:00,3.9,-9.4,31.37,NW,315,0.0,0.0,53,0.00,,,0.00,meteohub,2013-02-20 14:02:00,
2013-02-20 07:07:00,3.9,-9.4,31.37,NW,315,0.0,0.0,53,0.00,,,0.00,meteohub,2013-02-20 14:07:00,
2013-02-20 07:12:00,4.3,-9.0,31.38,South,180,0.0,0.0,53,0.00,,,0.00,meteohub,2013-02-20 14:12:00,
2013-02-20 07:17:00,4.6,-8.7,31.37,NW,315,0.0,0.0,53,0.00,,,0.00,meteohub,2013-02-20 14:17:00,
2013-02-20 07:22:00,5.2,-8.7,31.38,North,0,0.0,0.0,52,0.00,,,0.00,meteohub,2013-02-20 14:22:00,
2013-02-20 07:27:00,5.5,-8.3,31.38,South,180,0.0,0.0,52,0.00,,,0.00,meteohub,2013-02-20 14:27:00,
2013-02-20 07:32:00,5.9,-8.0,31.38,South,180,0.0,0.0,52,0.00,,,0.00,meteohub,2013-02-20 14:32:00,
2013-02-20 07:37:00,6.3,-7.6,31.38,SW,225,0.0,0.0,52,0.00,,,0.00,meteohub,2013-02-20 14:37:00,
2013-02-20 07:42:00,6.8,-8.0,31.37,South,180,0.0,0.0,50,0.00,,,0.00,meteohub,2013-02-20 14:42:00,
2013-02-20 07:47:00,7.3,-7.4,31.38,South,180,0.0,0.0,50,0.00,,,0.00,meteohub,2013-02-20 14:47:00,
2013-02-20 07:52:00,8.1,-6.7,31.37,South,180,0.0,0.0,50,0.00,,,0.00,meteohub,2013-02-20 14:52:00,
2013-02-20 07:57:00,9.0,-6.3,31.37,West,270,0.0,0.0,49,0.00,,,0.00,meteohub,2013-02-20 14:57:00,
2013-02-20 08:02:00,10.2,-5.6,31.38,NE,45,0.0,0.0,48,0.00,,,0.00,meteohub,2013-02-20 15:02:00,
2013-02-20 08:07:00,11.1,-3.1,31.38,East,90,0.0,0.0,52,0.00,,,0.00,meteohub,2013-02-20 15:07:00,
2013-02-20 08:12:00,11.5,-3.1,31.37,NW,315,0.0,0.0,51,0.00,,,0.00,meteohub,2013-02-20 15:12:00,
2013-02-20 08:17:00,11.5,-4.0,31.37,SE,135,0.0,0.0,49,0.00,,,0.00,meteohub,2013-02-20 15:17:00,
2013-02-20 08:23:00,10.9,-4.9,31.37,North,0,0.0,0.0,48,0.00,,,0.00,meteohub,2013-02-20 15:23:00,
2013-02-20 08:28:00,10.6,-5.6,31.37,North,0,0.0,0.0,47,0.00,,,0.00,meteohub,2013-02-20 15:28:00,
2013-02-20 08:34:00,11.1,-5.3,31.37,NW,315,0.0,0.0,47,0.00,,,0.00,meteohub,2013-02-20 15:34:00,
2013-02-20 08:39:00,11.8,-4.5,31.37,NW,315,0.0,0.0,47,0.00,,,0.00,meteohub,2013-02-20 15:39:00,
2013-02-20 08:45:00,13.1,-3.8,31.37,NE,45,0.0,0.0,46,0.00,,,0.00,meteohub,2013-02-20 15:45:00,
2013-02-20 08:50:00,14.5,-2.9,31.36,NE,45,0.0,0.0,45,0.00,,,0.00,meteohub,2013-02-20 15:50:00,
2013-02-20 08:55:00,15.8,-2.2,31.37,NW,315,0.0,0.0,44,0.00,,,0.00,meteohub,2013-02-20 15:55:00,
2013-02-20 09:01:00,17.6,-1.1,31.36,NE,45,0.0,0.0,43,0.00,,,0.00,meteohub,2013-02-20 16:01:00,
2013-02-20 09:06:00,17.6,-1.1,31.37,NE,45,0.0,0.0,43,0.00,,,0.00,meteohub,2013-02-20 16:06:00,
2013-02-20 09:11:00,19.6,0.7,31.36,East,90,0.0,0.0,43,0.00,,,0.00,meteohub,2013-02-20 16:11:00,
2013-02-20 09:17:00,21.2,1.8,31.36,NE,45,3.0,4.0,42,0.00,,,0.00,meteohub,2013-02-20 16:17:00,
2013-02-20 09:22:00,21.9,0.7,31.36,NE,45,1.0,4.0,39,0.00,,,0.00,meteohub,2013-02-20 16:22:00,
2013-02-20 09:27:00,22.6,0.3,31.35,NE,45,3.0,4.0,37,0.00,,,0.00,meteohub,2013-02-20 16:27:00,
2013-02-20 09:33:00,23.7,0.7,31.35,North,0,0.0,4.0,36,0.00,,,0.00,meteohub,2013-02-20 16:33:00,
2013-02-20 09:38:00,25.0,0.5,31.35,NW,315,3.0,3.0,34,0.00,,,0.00,meteohub,2013-02-20 16:38:00,
2013-02-20 09:44:00,26.4,1.2,31.34,NE,45,2.0,3.0,33,0.00,,,0.00,meteohub,2013-02-20 16:44:00,
2013-02-20 09:49:00,27.0,0.3,31.35,NE,45,3.0,4.0,31,0.00,,,0.00,meteohub,2013-02-20 16:49:00,
2013-02-20 09:54:00,27.5,0.1,31.34,East,90,2.0,4.0,30,0.00,,,0.00,meteohub,2013-02-20 16:54:00,
2013-02-20 10:00:00,28.2,0.0,31.34,North,0,0.0,4.0,29,0.00,,,0.00,meteohub,2013-02-20 17:00:00,
2013-02-20 10:05:00,27.9,-1.8,31.33,East,90,0.0,4.0,27,0.00,,,0.00,meteohub,2013-02-20 17:05:00,
2013-02-20 10:11:00,27.5,-2.2,31.33,NE,45,3.0,4.0,27,0.00,,,0.00,meteohub,2013-02-20 17:11:00,
2013-02-20 10:16:00,27.5,-0.6,31.33,North,0,3.0,4.0,29,0.00,,,0.00,meteohub,2013-02-20 17:16:00,
2013-02-20 10:21:00,29.1,4.3,31.33,SE,135,1.0,4.0,34,0.00,,,0.00,meteohub,2013-02-20 17:21:00,
2013-02-20 10:27:00,30.9,5.2,31.32,NW,315,2.0,4.0,33,0.00,,,0.00,meteohub,2013-02-20 17:27:00,
2013-02-20 10:32:00,30.9,4.5,31.32,NE,45,4.0,5.0,32,0.00,,,0.00,meteohub,2013-02-20 17:32:00,
2013-02-20 10:37:00,31.3,5.5,31.32,NW,315,0.0,5.0,33,0.00,,,0.00,meteohub,2013-02-20 17:37:00,
2013-02-20 10:42:00,30.7,4.3,31.31,East,90,4.0,8.0,32,0.00,,,0.00,meteohub,2013-02-20 17:42:00,
2013-02-20 10:47:00,31.3,6.1,31.31,South,180,2.0,8.0,34,0.00,,,0.00,meteohub,2013-02-20 17:47:00,
2013-02-20 10:52:00,32.4,7.2,31.31,NE,45,2.0,8.0,34,0.00,,,0.00,meteohub,2013-02-20 17:52:00,
2013-02-20 10:58:00,32.4,6.4,31.31,SE,135,0.0,4.0,33,0.00,,,0.00,meteohub,2013-02-20 17:58:00,
2013-02-20 11:03:00,32.4,6.4,31.31,West,270,0.0,4.0,33,0.00,,,0.00,meteohub,2013-02-20 18:03:00,
2013-02-20 11:09:00,32.4,6.4,31.31,East,90,0.0,4.0,33,0.00,,,0.00,meteohub,2013-02-20 18:09:00,
2013-02-20 11:14:00,32.4,6.4,31.30,East,90,2.0,4.0,33,0.00,,,0.00,meteohub,2013-02-20 18:14:00,
2013-02-20 11:19:00,32.4,6.4,31.30,South,180,3.0,5.0,33,0.00,,,0.00,meteohub,2013-02-20 18:19:00,
2013-02-20 11:25:00,32.5,6.6,31.30,East,90,3.0,5.0,33,0.00,,,0.00,meteohub,2013-02-20 18:25:00,
2013-02-20 11:30:00,32.5,7.3,31.30,East,90,5.0,5.0,34,0.00,,,0.00,meteohub,2013-02-20 18:30:00,
2013-02-20 11:36:00,32.0,6.1,31.29,East,90,4.0,6.0,33,0.00,,,0.00,meteohub,2013-02-20 18:36:00,
2013-02-20 11:41:00,32.4,7.2,31.29,NE,45,4.0,7.0,34,0.00,,,0.00,meteohub,2013-02-20 18:41:00,
2013-02-20 11:47:00,32.4,7.7,31.29,East,90,4.0,7.0,35,0.00,,,0.00,meteohub,2013-02-20 18:47:00,
2013-02-20 11:52:00,32.2,7.5,31.28,East,90,5.0,6.0,35,0.00,,,0.00,meteohub,2013-02-20 18:52:00,
2013-02-20 11:57:00,31.8,7.9,31.28,SE,135,4.0,6.0,36,0.00,,,0.00,meteohub,2013-02-20 18:57:00,
2013-02-20 12:02:00,31.8,7.9,31.28,ESE,113,3.0,6.0,36,0.00,,,0.00,meteohub,2013-02-20 19:02:00,
2013-02-20 12:07:00,32.4,8.4,31.28,SSW,203,8.0,8.0,36,0.00,,,0.00,meteohub,2013-02-20 19:07:00,
2013-02-20 12:12:00,32.4,7.7,31.27,SE,135,4.0,8.0,35,0.00,,,0.00,meteohub,2013-02-20 19:12:00,
2013-02-20 12:17:00,32.4,7.2,31.27,SE,135,4.0,11.0,34,0.00,,,0.00,meteohub,2013-02-20 19:17:00,
2013-02-20 12:22:00,32.2,5.5,31.26,SE,135,2.0,11.0,32,0.00,,,0.00,meteohub,2013-02-20 19:22:00,
2013-02-20 12:27:00,32.0,4.8,31.26,ESE,113,8.0,11.0,31,0.00,,,0.00,meteohub,2013-02-20 19:27:00,
2013-02-20 12:32:00,31.5,5.0,31.26,SE,135,8.0,11.0,32,0.00,,,0.00,meteohub,2013-02-20 19:32:00,
2013-02-20 12:37:00,30.9,4.5,31.26,SE,135,8.0,11.0,32,0.00,,,0.00,meteohub,2013-02-20 19:37:00,
2013-02-20 12:42:00,30.7,5.7,31.26,ESE,113,8.0,11.0,34,0.00,,,0.00,meteohub,2013-02-20 19:42:00,
2013-02-20 12:47:00,30.7,6.3,31.26,North,0,5.0,11.0,35,0.00,,,0.00,meteohub,2013-02-20 19:47:00,
2013-02-20 12:52:00,30.7,6.3,31.25,East,90,11.0,11.0,35,0.00,,,0.00,meteohub,2013-02-20 19:52:00,
2013-02-20 12:57:00,30.6,5.5,31.25,North,0,4.0,11.0,34,0.00,,,0.00,meteohub,2013-02-20 19:57:00,
2013-02-20 13:02:00,30.0,6.3,31.25,SE,135,6.0,11.0,36,0.00,,,0.00,meteohub,2013-02-20 20:02:00,
2013-02-20 13:07:00,30.0,6.3,31.25,SE,135,6.0,11.0,36,0.00,,,0.00,meteohub,2013-02-20 20:07:00,
2013-02-20 13:12:00,31.1,9.7,31.24,SE,135,6.0,10.0,40,0.00,,,0.00,meteohub,2013-02-20 20:12:00,
2013-02-20 13:17:00,30.9,8.8,31.24,East,90,3.0,6.0,39,0.00,,,0.00,meteohub,2013-02-20 20:17:00,
2013-02-20 13:22:00,30.6,8.6,31.24,ENE,68,6.0,7.0,39,0.00,,,0.00,meteohub,2013-02-20 20:22:00,
2013-02-20 13:27:00,30.0,10.2,31.24,NE,45,7.0,8.0,43,0.00,,,0.00,meteohub,2013-02-20 20:27:00,
2013-02-20 13:32:00,29.8,11.1,31.23,North,0,3.0,11.0,45,0.00,,,0.00,meteohub,2013-02-20 20:32:00,
2013-02-20 13:37:00,30.4,11.1,31.23,NE,45,4.0,11.0,44,0.00,,,0.00,meteohub,2013-02-20 20:37:00,
2013-02-20 13:42:00,31.1,11.7,31.23,NE,45,6.0,9.0,44,0.00,,,0.00,meteohub,2013-02-20 20:42:00,
2013-02-20 13:47:00,30.9,11.5,31.23,North,0,0.0,8.0,44,0.00,,,0.00,meteohub,2013-02-20 20:47:00,
2013-02-20 13:52:00,32.0,12.0,31.23,NE,45,2.0,8.0,43,0.00,,,0.00,meteohub,2013-02-20 20:52:00,
2013-02-20 13:57:00,32.4,11.3,31.23,NE,45,2.0,8.0,41,0.00,,,0.00,meteohub,2013-02-20 20:57:00,
2013-02-20 14:02:00,32.7,11.1,31.23,SE,135,3.0,4.0,40,0.00,,,0.00,meteohub,2013-02-20 21:02:00,
2013-02-20 14:07:00,32.9,11.3,31.22,SE,135,2.0,4.0,40,0.00,,,0.00,meteohub,2013-02-20 21:07:00,
2013-02-20 14:13:00,32.5,10.4,31.22,North,0,8.0,8.0,39,0.00,,,0.00,meteohub,2013-02-20 21:13:00,
2013-02-20 14:19:00,32.2,11.1,31.22,NE,45,3.0,7.0,41,0.00,,,0.00,meteohub,2013-02-20 21:19:00,
2013-02-20 14:24:00,32.0,12.0,31.22,NE,45,6.0,8.0,43,0.00,,,0.00,meteohub,2013-02-20 21:24:00,
2013-02-20 14:29:00,31.1,12.2,31.22,NNW,338,6.0,9.0,45,0.00,,,0.00,meteohub,2013-02-20 21:29:00,
2013-02-20 14:34:00,30.4,12.0,31.22,East,90,5.0,9.0,46,0.00,,,0.00,meteohub,2013-02-20 21:34:00,
2013-02-20 14:40:00,30.2,12.4,31.22,North,0,3.0,10.0,47,0.00,,,0.00,meteohub,2013-02-20 21:40:00,
2013-02-20 14:45:00,30.0,12.2,31.22,East,90,7.0,10.0,47,0.00,,,0.00,meteohub,2013-02-20 21:45:00,
2013-02-20 14:51:00,29.5,11.7,31.22,South,180,6.0,11.0,47,0.00,,,0.00,meteohub,2013-02-20 21:51:00,
2013-02-20 14:56:00,28.4,11.3,31.22,NE,45,3.0,11.0,48,0.00,,,0.00,meteohub,2013-02-20 21:56:00,
2013-02-20 15:02:00,28.0,9.5,31.22,SE,135,4.0,8.0,45,0.00,,,0.00,meteohub,2013-02-20 22:02:00,
2013-02-20 15:07:00,28.0,9.5,31.23,SE,135,4.0,8.0,45,0.00,,,0.00,meteohub,2013-02-20 22:07:00,
2013-02-20 15:12:00,27.1,11.5,31.23,SE,135,3.0,8.0,51,0.00,,,0.00,meteohub,2013-02-20 22:12:00,
2013-02-20 15:17:00,27.1,12.2,31.23,SW,225,4.0,5.0,53,0.00,,,0.00,meteohub,2013-02-20 22:17:00,
2013-02-20 15:22:00,27.0,12.6,31.23,South,180,4.0,7.0,54,0.00,,,0.00,meteohub,2013-02-20 22:22:00,
2013-02-20 15:27:00,27.0,12.9,31.22,East,90,1.0,7.0,55,0.00,,,0.00,meteohub,2013-02-20 22:27:00,
2013-02-20 15:32:00,27.0,12.9,31.22,SE,135,2.0,6.0,55,0.00,,,0.00,meteohub,2013-02-20 22:32:00,
2013-02-20 15:37:00,27.3,12.9,31.22,SE,135,3.0,4.0,54,0.00,,,0.00,meteohub,2013-02-20 22:37:00,
2013-02-20 15:42:00,27.3,12.4,31.22,South,180,3.0,6.0,53,0.00,,,0.00,meteohub,2013-02-20 22:42:00,
2013-02-20 15:47:00,27.1,12.2,31.22,SE,135,8.0,8.0,53,0.00,,,0.00,meteohub,2013-02-20 22:47:00,
2013-02-20 15:52:00,26.1,13.6,31.22,SE,135,6.0,8.0,59,0.00,,,0.00,meteohub,2013-02-20 22:52:00,
2013-02-20 15:57:00,25.0,14.2,31.22,ESE,113,6.0,8.0,63,0.00,,,0.00,meteohub,2013-02-20 22:57:00,
2013-02-20 16:02:00,24.3,14.9,31.22,South,180,3.0,8.0,67,0.00,,,0.00,meteohub,2013-02-20 23:02:00,
2013-02-20 16:07:00,23.9,15.3,31.22,SE,135,5.0,8.0,69,0.00,,,0.00,meteohub,2013-02-20 23:07:00,
2013-02-20 16:12:00,23.4,15.1,31.23,SE,135,5.0,8.0,70,0.00,,,0.00,meteohub,2013-02-20 23:12:00,
2013-02-20 16:17:00,23.0,15.1,31.23,SSE,158,4.0,11.0,71,0.00,,,0.00,meteohub,2013-02-20 23:17:00,
2013-02-20 16:22:00,22.8,15.1,31.23,East,90,1.0,11.0,72,0.00,,,0.00,meteohub,2013-02-20 23:22:00,
2013-02-20 16:27:00,22.8,15.4,31.23,SSE,158,4.0,11.0,73,0.00,,,0.00,meteohub,2013-02-20 23:27:00,
2013-02-20 16:32:00,23.0,15.3,31.23,SE,135,6.0,8.0,72,0.00,,,0.00,meteohub,2013-02-20 23:32:00,
2013-02-20 16:37:00,23.0,15.6,31.23,East,90,3.0,6.0,73,0.00,,,0.00,meteohub,2013-02-20 23:37:00,
2013-02-20 16:42:00,23.0,15.6,31.23,South,180,7.0,8.0,73,0.00,,,0.00,meteohub,2013-02-20 23:42:00,
2013-02-20 16:47:00,22.6,15.6,31.23,South,180,4.0,8.0,74,0.00,,,0.00,meteohub,2013-02-20 23:47:00,
2013-02-20 16:52:00,22.3,15.3,31.23,SE,135,5.0,8.0,74,0.00,,,0.00,meteohub,2013-02-20 23:52:00,
2013-02-20 16:57:00,22.1,15.1,31.23,SE,135,3.0,8.0,74,0.00,,,0.00,meteohub,2013-02-20 23:57:00,
2013-02-20 17:02:00,22.1,15.1,31.22,South,180,2.0,8.0,74,0.00,,,0.00,meteohub,2013-02-21 00:02:00,
2013-02-20 17:07:00,22.1,15.1,31.23,South,180,2.0,7.0,74,0.00,,,0.00,meteohub,2013-02-21 00:07:00,
2013-02-20 17:12:00,22.1,15.1,31.23,SE,135,2.0,4.0,74,0.00,,,0.00,meteohub,2013-02-21 00:12:00,
2013-02-20 17:17:00,22.1,15.1,31.23,SW,225,2.0,2.0,74,0.00,,,0.00,meteohub,2013-02-21 00:17:00,
2013-02-20 17:22:00,21.9,14.9,31.23,SE,135,0.0,4.0,74,0.00,,,0.00,meteohub,2013-02-21 00:22:00,
2013-02-20 17:27:00,21.9,14.9,31.23,SE,135,0.0,4.0,74,0.00,,,0.00,meteohub,2013-02-21 00:27:00,
2013-02-20 17:32:00,21.9,14.9,31.23,SE,135,0.0,4.0,74,0.00,,,0.00,meteohub,2013-02-21 00:32:00,
2013-02-20 17:37:00,21.7,14.7,31.23,SE,135,1.0,3.0,74,0.00,,,0.00,meteohub,2013-02-21 00:37:00,
2013-02-20 17:43:00,21.7,14.7,31.23,SE,135,0.0,3.0,74,0.00,,,0.00,meteohub,2013-02-21 00:43:00,
2013-02-20 17:48:00,21.6,14.5,31.23,SE,135,0.0,3.0,74,0.00,,,0.00,meteohub,2013-02-21 00:48:00,
2013-02-20 17:54:00,21.2,14.2,31.23,SE,135,0.0,3.0,74,0.00,,,0.00,meteohub,2013-02-21 00:54:00,
2013-02-20 17:59:00,21.0,14.4,31.23,West,270,0.0,0.0,75,0.00,,,0.00,meteohub,2013-02-21 00:59:00,
2013-02-20 18:05:00,20.8,13.8,31.23,West,270,0.0,0.0,74,0.00,,,0.00,meteohub,2013-02-21 01:05:00,
2013-02-20 18:10:00,20.7,13.6,31.23,West,270,0.0,0.0,74,0.00,,,0.00,meteohub,2013-02-21 01:10:00,
2013-02-20 18:16:00,20.7,13.6,31.24,SE,135,0.0,0.0,74,0.00,,,0.00,meteohub,2013-02-21 01:16:00,
2013-02-20 18:22:00,20.7,14.0,31.23,NE,45,0.0,0.0,75,0.00,,,0.00,meteohub,2013-02-21 01:22:00,
2013-02-20 18:27:00,20.8,14.2,31.23,South,180,0.0,0.0,75,0.00,,,0.00,meteohub,2013-02-21 01:27:00,
2013-02-20 18:32:00,21.0,14.4,31.23,East,90,2.0,2.0,75,0.00,,,0.00,meteohub,2013-02-21 01:32:00,
2013-02-20 18:37:00,21.0,14.4,31.24,SE,135,3.0,4.0,75,0.00,,,0.00,meteohub,2013-02-21 01:37:00,
2013-02-20 18:42:00,21.0,14.4,31.23,South,180,4.0,4.0,75,0.00,,,0.00,meteohub,2013-02-21 01:42:00,
2013-02-20 18:47:00,20.8,14.2,31.24,East,90,4.0,4.0,75,0.00,,,0.00,meteohub,2013-02-21 01:47:00,
2013-02-20 18:52:00,20.8,14.2,31.24,East,90,4.0,6.0,75,0.00,,,0.00,meteohub,2013-02-21 01:52:00,
2013-02-20 18:57:00,20.8,14.5,31.24,East,90,2.0,6.0,76,0.00,,,0.00,meteohub,2013-02-21 01:57:00,
2013-02-20 19:02:00,20.8,14.5,31.24,SE,135,3.0,6.0,76,0.00,,,0.00,meteohub,2013-02-21 02:02:00,
2013-02-20 19:07:00,20.8,14.5,31.24,SE,135,3.0,6.0,76,0.00,,,0.00,meteohub,2013-02-21 02:07:00,
2013-02-20 19:12:00,20.5,14.2,31.24,SE,135,3.0,4.0,76,0.00,,,0.00,meteohub,2013-02-21 02:12:00,
2013-02-20 19:17:00,20.3,14.0,31.24,South,180,3.0,4.0,76,0.00,,,0.00,meteohub,2013-02-21 02:17:00,
2013-02-20 19:22:00,20.3,14.0,31.24,East,90,3.0,5.0,76,0.00,,,0.00,meteohub,2013-02-21 02:22:00,
2013-02-20 19:27:00,20.5,14.2,31.24,SE,135,2.0,7.0,76,0.00,,,0.00,meteohub,2013-02-21 02:27:00,
2013-02-20 19:32:00,20.5,14.2,31.24,South,180,4.0,7.0,76,0.00,,,0.00,meteohub,2013-02-21 02:32:00,
2013-02-20 19:37:00,20.5,14.2,31.24,East,90,4.0,7.0,76,0.00,,,0.00,meteohub,2013-02-21 02:37:00,
2013-02-20 19:42:00,20.7,14.4,31.24,SE,135,3.0,4.0,76,0.00,,,0.00,meteohub,2013-02-21 02:42:00,
2013-02-20 19:48:00,20.7,14.4,31.24,East,90,2.0,4.0,76,0.00,,,0.00,meteohub,2013-02-21 02:48:00,
2013-02-20 19:53:00,20.7,14.4,31.24,SW,225,2.0,4.0,76,0.00,,,0.00,meteohub,2013-02-21 02:53:00,
2013-02-20 19:59:00,20.7,14.4,31.24,East,90,1.0,4.0,76,0.00,,,0.00,meteohub,2013-02-21 02:59:00,
2013-02-20 20:04:00,20.7,14.4,31.23,East,90,0.0,3.0,76,0.00,,,0.00,meteohub,2013-02-21 03:04:00,
2013-02-20 20:09:00,20.7,14.4,31.24,East,90,1.0,3.0,76,0.00,,,0.00,meteohub,2013-02-21 03:09:00,
2013-02-20 20:15:00,20.7,14.4,31.24,SE,135,0.0,2.0,76,0.00,,,0.00,meteohub,2013-02-21 03:15:00,
2013-02-20 20:20:00,20.7,14.4,31.24,SE,135,0.0,2.0,76,0.00,,,0.00,meteohub,2013-02-21 03:20:00,
2013-02-20 20:25:00,20.7,14.4,31.24,SE,135,0.0,2.0,76,0.00,,,0.00,meteohub,2013-02-21 03:25:00,
2013-02-20 20:31:00,20.7,14.4,31.24,North,0,0.0,0.0,76,0.00,,,0.00,meteohub,2013-02-21 03:31:00,
2013-02-20 20:36:00,20.7,14.4,31.24,North,0,0.0,0.0,76,0.00,,,0.00,meteohub,2013-02-21 03:36:00,
2013-02-20 20:42:00,20.7,14.4,31.24,NE,45,0.0,0.0,76,0.00,,,0.00,meteohub,2013-02-21 03:42:00,
2013-02-20 20:47:00,20.5,14.2,31.24,NE,45,0.0,0.0,76,0.00,,,0.00,meteohub,2013-02-21 03:47:00,
2013-02-20 20:52:00,20.5,14.2,31.24,SE,135,0.0,0.0,76,0.00,,,0.00,meteohub,2013-02-21 03:52:00,
2013-02-20 20:57:00,20.5,14.2,31.24,SW,225,0.0,0.0,76,0.00,,,0.00,meteohub,2013-02-21 03:57:00,
2013-02-20 21:02:00,20.5,14.2,31.24,East,90,0.0,1.0,76,0.00,,,0.00,meteohub,2013-02-21 04:02:00,
2013-02-20 21:07:00,20.5,14.2,31.23,East,90,0.0,1.0,76,0.00,,,0.00,meteohub,2013-02-21 04:07:00,
2013-02-20 21:12:00,20.1,13.8,31.23,SE,135,4.0,4.0,76,0.00,,,0.00,meteohub,2013-02-21 04:12:00,
2013-02-20 21:18:00,20.1,13.8,31.24,SE,135,1.0,4.0,76,0.00,,,0.00,meteohub,2013-02-21 04:18:00,
2013-02-20 21:24:00,19.9,13.6,31.24,SSE,158,4.0,4.0,76,0.00,,,0.00,meteohub,2013-02-21 04:24:00,
2013-02-20 21:29:00,19.8,13.5,31.24,SE,135,3.0,4.0,76,0.00,,,0.00,meteohub,2013-02-21 04:29:00,
2013-02-20 21:35:00,19.4,13.1,31.24,South,180,6.0,6.0,76,0.00,,,0.00,meteohub,2013-02-21 04:35:00,
2013-02-20 21:41:00,19.2,11.7,31.24,SE,135,3.0,6.0,72,0.00,,,0.00,meteohub,2013-02-21 04:41:00,
2013-02-20 21:47:00,19.0,11.5,31.24,SSW,203,4.0,6.0,72,0.00,,,0.00,meteohub,2013-02-21 04:47:00,
2013-02-20 21:52:00,19.0,11.5,31.24,SE,135,4.0,7.0,72,0.00,,,0.00,meteohub,2013-02-21 04:52:00,
2013-02-20 21:57:00,18.9,11.3,31.24,SE,135,4.0,7.0,72,0.00,,,0.00,meteohub,2013-02-21 04:57:00,
2013-02-20 22:00:00,18.9,11.3,31.25,SE,135,3.0,7.0,72,0.00,,,0.00,meteohub,2013-02-21 05:00:00,
2013-02-20 22:01:00,18.9,11.3,31.25,SE,135,3.0,7.0,72,0.00,,,0.00,meteohub,2013-02-21 05:01:00,
2013-02-20 22:02:00,18.9,11.3,31.25,SE,135,3.0,7.0,72,0.00,,,0.00,meteohub,2013-02-21 05:02:00,
2013-02-20 22:04:00,18.9,11.3,31.25,East,90,4.0,7.0,72,0.00,,,0.00,meteohub,2013-02-21 05:04:00,
2013-02-20 22:10:00,18.9,11.3,31.25,SE,135,4.0,7.0,72,0.00,,,0.00,meteohub,2013-02-21 05:10:00,
2013-02-20 22:15:00,18.9,11.3,31.25,East,90,2.0,5.0,72,0.00,,,0.00,meteohub,2013-02-21 05:15:00,
2013-02-20 22:20:00,18.9,11.3,31.25,North,0,2.0,4.0,72,0.00,,,0.00,meteohub,2013-02-21 05:20:00,
2013-02-20 22:26:00,18.9,11.3,31.25,SE,135,2.0,4.0,72,0.00,,,0.00,meteohub,2013-02-21 05:26:00,
2013-02-20 22:31:00,18.9,11.3,31.24,South,180,2.0,3.0,72,0.00,,,0.00,meteohub,2013-02-21 05:31:00,
2013-02-20 22:37:00,18.9,11.3,31.25,South,180,0.0,3.0,72,0.00,,,0.00,meteohub,2013-02-21 05:37:00,
2013-02-20 22:42:00,18.9,11.3,31.24,South,180,2.0,3.0,72,0.00,,,0.00,meteohub,2013-02-21 05:42:00,
2013-02-20 22:47:00,18.9,11.3,31.24,East,90,2.0,3.0,72,0.00,,,0.00,meteohub,2013-02-21 05:47:00,
2013-02-20 22:52:00,18.7,11.1,31.24,East,90,1.0,3.0,72,0.00,,,0.00,meteohub,2013-02-21 05:52:00,
2013-02-20 22:57:00,18.7,11.1,31.24,SE,135,4.0,5.0,72,0.00,,,0.00,meteohub,2013-02-21 05:57:00,
2013-02-20 23:02:00,18.7,11.1,31.25,ESE,113,3.0,5.0,72,0.00,,,0.00,meteohub,2013-02-21 06:02:00,
2013-02-20 23:07:00,18.7,11.1,31.24,ESE,113,3.0,5.0,72,0.00,,,0.00,meteohub,2013-02-21 06:07:00,
2013-02-20 23:12:00,18.7,11.1,31.24,SE,135,3.0,4.0,72,0.00,,,0.00,meteohub,2013-02-21 06:12:00,
2013-02-20 23:17:00,18.7,11.1,31.24,South,180,4.0,4.0,72,0.00,,,0.00,meteohub,2013-02-21 06:17:00,
2013-02-20 23:22:00,18.7,11.1,31.24,SE,135,2.0,4.0,72,0.00,,,0.00,meteohub,2013-02-21 06:22:00,
2013-02-20 23:27:00,18.5,10.9,31.25,East,90,3.0,4.0,72,0.00,,,0.00,meteohub,2013-02-21 06:27:00,
2013-02-20 23:32:00,18.5,10.9,31.24,SE,135,2.0,4.0,72,0.00,,,0.00,meteohub,2013-02-21 06:32:00,
2013-02-20 23:37:00,18.5,10.9,31.25,SE,135,2.0,3.0,72,0.00,,,0.00,meteohub,2013-02-21 06:37:00,
2013-02-20 23:42:00,18.5,10.9,31.25,East,90,0.0,3.0,72,0.00,,,0.00,meteohub,2013-02-21 06:42:00,
2013-02-20 23:47:00,18.3,10.8,31.25,East,90,2.0,3.0,72,0.00,,,0.00,meteohub,2013-02-21 06:47:00,
2013-02-20 23:52:00,18.3,10.8,31.25,SSE,158,1.0,4.0,72,0.00,,,0.00,meteohub,2013-02-21 06:52:00,
2013-02-20 23:57:00,18.3,10.8,31.25,SSE,158,2.0,4.0,72,0.00,,,0.00,meteohub,2013-02-21 06:57:00,